Time;durP1;ratioP1;P1;durP2;ratioP2;P2;SDS_P1;SDS_P2;PMS_P1;PMS_P2;Temp;Humidity;BMP_temperature;BMP_pressure;BME280_temperature;BME280_humidity;BME280_pressure;Samples;Min_cycle;Max_cycle;Signal;HPM_P1;HPM_P2
2022/03/25 00:01:28;;;;;;;45.88;28.60;;;5.60;99.90;;;;;;4891241;29;20036;-75
2022/03/25 00:03:54;;;;;;;45.60;28.23;;;5.50;99.90;;;;;;4901531;29;20048;-75
2022/03/25 00:06:21;;;;;;;45.22;27.48;;;5.50;99.90;;;;;;4901419;29;20044;-75
2022/03/25 00:08:47;;;;;;;45.10;28.00;;;5.50;99.90;;;;;;4903154;29;20060;-78
2022/03/25 00:11:12;;;;;;;43.78;28.75;;;5.50;99.90;;;;;;4885236;29;20140;-77
2022/03/25 00:13:38;;;;;;;49.40;28.70;;;5.50;99.90;;;;;;4889146;29;20048;-77
2022/03/25 00:16:06;;;;;;;49.22;29.85;;;5.40;99.90;;;;;;4902566;29;20087;-77
2022/03/25 00:18:32;;;;;;;40.60;27.33;;;5.40;99.90;;;;;;4903844;29;20048;-78
2022/03/25 00:20:58;;;;;;;48.15;29.50;;;6.00;99.90;;;;;;4903256;29;20074;-77
2022/03/25 00:23:25;;;;;;;46.75;28.35;;;5.40;99.90;;;;;;4902943;29;20450;-77
2022/03/25 00:25:51;;;;;;;47.63;28.05;;;5.30;99.90;;;;;;4902592;29;20520;-77
2022/03/25 00:28:17;;;;;;;47.72;28.85;;;5.30;99.90;;;;;;4903119;29;20052;-77
2022/03/25 00:30:43;;;;;;;44.97;28.05;;;6.00;99.90;;;;;;4904282;29;20044;-77
2022/03/25 00:33:09;;;;;;;50.78;29.00;;;5.30;99.90;;;;;;4907363;29;20620;-78
2022/03/25 00:35:35;;;;;;;42.92;28.00;;;5.40;99.90;;;;;;4890718;29;20170;-78
2022/03/25 00:38:01;;;;;;;46.03;29.45;;;5.20;99.90;;;;;;4907510;29;20048;-77
2022/03/25 00:40:26;;;;;;;45.83;28.95;;;5.20;99.90;;;;;;4889944;29;20048;-77
2022/03/25 00:42:52;;;;;;;48.10;29.20;;;5.20;99.90;;;;;;4925023;29;20052;-77
2022/03/25 00:45:18;;;;;;;49.30;29.40;;;5.10;99.90;;;;;;4908510;29;20063;-78
2022/03/25 00:47:44;;;;;;;48.63;30.73;;;5.10;99.90;;;;;;4912535;29;20044;-78
2022/03/25 00:50:11;;;;;;;49.10;30.25;;;6.10;99.90;;;;;;4908615;29;20084;-78
2022/03/25 00:52:37;;;;;;;47.55;29.05;;;5.10;99.90;;;;;;4885387;29;20166;-77
2022/03/25 00:55:04;;;;;;;53.08;30.83;;;5.10;99.90;;;;;;4911465;29;20045;-77
2022/03/25 00:57:29;;;;;;;53.50;32.28;;;5.00;99.90;;;;;;4910904;29;20048;-77
2022/03/25 00:59:56;;;;;;;51.33;29.88;;;5.00;99.90;;;;;;4892103;29;20052;-77
2022/03/25 01:02:22;;;;;;;50.03;30.02;;;5.00;99.90;;;;;;4895511;29;20108;-77
2022/03/25 01:04:48;;;;;;;55.15;31.67;;;5.20;99.90;;;;;;4921706;29;20143;-77
2022/03/25 01:07:14;;;;;;;48.58;29.52;;;5.00;99.90;;;;;;4890369;29;20131;-78
2022/03/25 01:09:40;;;;;;;52.35;31.02;;;5.00;99.90;;;;;;4905414;29;20046;-77
2022/03/25 01:12:06;;;;;;;50.40;29.90;;;5.00;99.90;;;;;;4879768;29;20112;-77
2022/03/25 01:14:32;;;;;;;52.90;29.98;;;5.00;99.90;;;;;;4905649;29;20051;-77
2022/03/25 01:16:58;;;;;;;51.80;30.55;;;5.00;99.90;;;;;;4889552;29;20059;-77
2022/03/25 01:19:25;;;;;;;51.63;30.05;;;5.00;99.90;;;;;;4904452;29;20044;-77
2022/03/25 01:21:51;;;;;;;52.38;30.17;;;5.20;99.90;;;;;;4859249;29;20087;-77
2022/03/25 01:24:16;;;;;;;48.47;30.98;;;5.00;99.90;;;;;;4889213;29;20145;-78
2022/03/25 01:26:43;;;;;;;48.45;28.83;;;5.00;99.90;;;;;;4888835;29;20128;-77
2022/03/25 01:29:09;;;;;;;47.90;27.85;;;5.00;99.90;;;;;;4911352;29;20135;-77
2022/03/25 01:31:34;;;;;;;44.05;27.60;;;5.10;99.90;;;;;;4919114;29;20192;-77
2022/03/25 01:34:01;;;;;;;46.55;28.77;;;5.00;99.90;;;;;;4889720;29;20040;-77
2022/03/25 01:36:27;;;;;;;47.80;28.40;;;5.00;99.90;;;;;;4888533;29;20411;-77
2022/03/25 01:38:52;;;;;;;47.78;28.73;;;5.40;99.90;;;;;;4895450;29;20048;-77
2022/03/25 01:41:19;;;;;;;46.95;28.30;;;5.30;99.90;;;;;;4904281;29;20130;-78
2022/03/25 01:43:52;;;;;;;45.08;28.38;;;5.00;99.90;;;;;;4905567;29;20041;-77
2022/03/25 01:46:18;;;;;;;47.38;28.33;;;5.10;99.90;;;;;;4889507;29;20064;-77
2022/03/25 01:48:44;;;;;;;47.63;28.13;;;4.90;99.90;;;;;;4901611;29;20084;-77
2022/03/25 01:51:10;;;;;;;47.35;28.38;;;4.90;99.90;;;;;;4888890;29;20633;-77
2022/03/25 01:53:36;;;;;;;49.50;29.88;;;4.90;99.90;;;;;;4903681;29;20061;-78
2022/03/25 01:56:03;;;;;;;45.25;29.10;;;4.90;99.90;;;;;;4904176;29;20044;-77
2022/03/25 01:58:31;;;;;;;48.13;29.58;;;4.90;99.90;;;;;;4904060;29;20048;-77
2022/03/25 02:00:58;;;;;;;47.92;28.67;;;5.80;99.90;;;;;;4904649;29;20048;-77
2022/03/25 02:03:24;;;;;;;49.33;29.40;;;4.90;99.90;;;;;;4903563;29;20394;-77
2022/03/25 02:05:50;;;;;;;51.00;29.95;;;4.90;99.90;;;;;;4887521;29;20960;-77
2022/03/25 02:08:16;;;;;;;44.60;28.92;;;5.30;99.90;;;;;;4887419;29;20224;-78
2022/03/25 02:10:43;;;;;;;48.40;29.60;;;5.00;99.90;;;;;;4904608;29;20099;-78
2022/03/25 02:13:10;;;;;;;53.17;31.70;;;4.90;99.90;;;;;;4904604;29;20577;-78
2022/03/25 02:15:41;;;;;;;55.63;32.80;;;4.80;99.90;;;;;;4903399;29;20040;-77
2022/03/25 02:18:14;;;;;;;54.35;32.85;;;4.80;99.90;;;;;;4908813;29;20056;-78
2022/03/25 02:20:40;;;;;;;57.78;31.98;;;4.80;99.90;;;;;;4918856;29;20048;-77
2022/03/25 02:23:07;;;;;;;50.63;31.83;;;4.90;99.90;;;;;;4902546;29;20057;-77
2022/03/25 02:25:33;;;;;;;51.88;30.55;;;4.80;99.90;;;;;;4902449;29;20411;-77
2022/03/25 02:28:00;;;;;;;52.72;30.67;;;4.80;99.90;;;;;;4904922;29;20055;-77
2022/03/25 02:30:27;;;;;;;51.13;30.60;;;4.90;99.90;;;;;;4887229;29;20555;-77
2022/03/25 02:32:57;;;;;;;49.63;29.88;;;4.30;99.90;;;;;;4903740;29;20067;-78
2022/03/25 02:35:55;;;;;;;50.05;29.02;;;4.70;99.90;;;;;;4903590;29;20056;-77
2022/03/25 02:38:23;;;;;;;50.60;30.77;;;4.70;99.90;;;;;;4893058;29;20056;-78
2022/03/25 02:40:49;;;;;;;48.47;30.80;;;4.70;99.90;;;;;;4902618;29;20051;-77
2022/03/25 02:43:16;;;;;;;50.33;30.75;;;4.70;99.90;;;;;;4903334;29;20056;-77
2022/03/25 02:45:42;;;;;;;50.78;30.65;;;4.60;99.90;;;;;;4904831;29;20148;-77
2022/03/25 02:48:09;;;;;;;49.65;29.83;;;4.50;99.90;;;;;;4918336;29;20483;-77
2022/03/25 02:50:35;;;;;;;47.35;28.88;;;4.90;99.90;;;;;;4918774;29;20138;-78
2022/03/25 02:53:02;;;;;;;49.10;29.75;;;4.50;99.90;;;;;;4903819;29;20518;-77
2022/03/25 02:55:28;;;;;;;50.88;31.08;;;4.50;99.90;;;;;;4886986;29;20049;-77
2022/03/25 02:57:54;;;;;;;50.97;29.48;;;4.40;99.90;;;;;;4902290;29;20059;-77
2022/03/25 03:00:21;;;;;;;53.30;29.42;;;4.40;99.90;;;;;;4902573;29;20822;-78
2022/03/25 03:02:48;;;;;;;50.03;29.67;;;4.40;99.90;;;;;;4886964;29;20142;-78
2022/03/25 03:05:14;;;;;;;51.35;29.42;;;4.40;99.90;;;;;;4893156;29;20491;-77
2022/03/25 03:07:40;;;;;;;50.72;30.88;;;4.40;99.90;;;;;;4886299;29;20056;-77
2022/03/25 03:10:08;;;;;;;52.83;31.08;;;4.40;99.90;;;;;;4903165;29;20063;-77
2022/03/25 03:12:35;;;;;;;54.33;31.80;;;4.40;99.90;;;;;;4876329;29;20056;-75
2022/03/25 03:15:03;;;;;;;55.35;31.42;;;4.40;99.90;;;;;;4907852;29;20051;-75
2022/03/25 03:17:28;;;;;;;54.33;30.20;;;4.40;99.90;;;;;;4904004;29;20048;-75
2022/03/25 03:19:55;;;;;;;53.65;30.70;;;4.40;99.90;;;;;;4872382;29;20099;-75
2022/03/25 03:22:21;;;;;;;47.58;29.95;;;4.30;99.90;;;;;;4904263;29;20047;-76
2022/03/25 03:24:47;;;;;;;52.78;31.85;;;4.30;99.90;;;;;;4889453;29;20056;-75
2022/03/25 03:27:12;;;;;;;53.92;32.38;;;4.30;99.90;;;;;;4904051;29;20049;-77
2022/03/25 03:29:38;;;;;;;55.90;30.17;;;4.40;99.90;;;;;;4901636;29;20056;-78
2022/03/25 03:32:05;;;;;;;51.17;30.40;;;4.20;99.90;;;;;;4902745;29;20062;-78
2022/03/25 03:34:31;;;;;;;54.72;31.25;;;4.20;99.90;;;;;;4903825;29;20047;-75
2022/03/25 03:36:57;;;;;;;53.88;31.50;;;4.20;99.90;;;;;;4903786;29;20107;-75
2022/03/25 03:39:23;;;;;;;58.88;32.55;;;4.30;99.90;;;;;;4901508;29;20059;-76
2022/03/25 03:41:49;;;;;;;55.55;32.13;;;4.50;99.90;;;;;;4893152;29;20072;-76
2022/03/25 03:44:14;;;;;;;53.85;30.33;;;4.90;99.90;;;;;;4903306;29;20053;-75
2022/03/25 03:46:40;;;;;;;56.90;31.92;;;4.20;99.90;;;;;;4886638;29;20044;-76
2022/03/25 03:49:07;;;;;;;55.65;32.53;;;4.20;99.90;;;;;;4878327;29;20459;-76
2022/03/25 03:51:33;;;;;;;53.90;30.25;;;4.10;99.90;;;;;;4887758;29;20111;-76
2022/03/25 03:54:00;;;;;;;51.20;30.13;;;4.90;99.90;;;;;;4903884;29;20044;-75
2022/03/25 03:56:26;;;;;;;57.00;32.13;;;4.20;99.90;;;;;;4893511;29;20119;-75
2022/03/25 03:58:52;;;;;;;49.65;29.40;;;4.10;99.90;;;;;;4889096;29;20390;-76
2022/03/25 04:01:18;;;;;;;55.28;31.65;;;4.10;99.90;;;;;;4907353;29;20150;-77
2022/03/25 04:03:44;;;;;;;48.80;28.55;;;4.80;99.90;;;;;;4902869;29;20044;-76
2022/03/25 04:06:10;;;;;;;51.35;30.65;;;4.00;99.90;;;;;;4903070;29;20446;-76
2022/03/25 04:08:36;;;;;;;49.20;29.70;;;4.00;99.90;;;;;;4905902;29;20099;-76
2022/03/25 04:11:03;;;;;;;50.80;30.33;;;4.60;99.90;;;;;;4890032;29;20043;-76
2022/03/25 04:13:29;;;;;;;52.25;31.00;;;2.70;99.90;;;;;;4906898;29;20052;-76
2022/03/25 04:15:54;;;;;;;53.53;30.88;;;3.90;99.90;;;;;;4906830;29;20052;-76
2022/03/25 04:18:22;;;;;;;48.25;29.00;;;3.90;99.90;;;;;;4907099;29;20502;-76
2022/03/25 04:20:49;;;;;;;50.38;29.60;;;3.90;99.90;;;;;;4890652;29;20084;-76
2022/03/25 04:23:16;;;;;;;50.25;28.10;;;3.80;99.90;;;;;;4906756;29;20056;-76
2022/03/25 04:25:41;;;;;;;54.75;30.42;;;4.10;99.90;;;;;;4890481;29;20127;-77
2022/03/25 04:28:07;;;;;;;54.45;29.73;;;3.80;99.90;;;;;;4905816;29;20135;-77
2022/03/25 04:30:36;;;;;;;50.30;29.52;;;3.70;99.90;;;;;;4908943;29;20040;-77
2022/03/25 04:33:02;;;;;;;49.10;28.45;;;3.70;99.90;;;;;;4906712;29;20051;-77
2022/03/25 04:35:28;;;;;;;49.33;28.58;;;3.70;99.90;;;;;;4904869;29;20596;-76
2022/03/25 04:37:55;;;;;;;53.33;29.48;;;3.70;99.90;;;;;;4889583;29;20807;-75
2022/03/25 04:40:23;;;;;;;51.85;29.10;;;3.70;99.90;;;;;;4905176;29;20402;-76
2022/03/25 04:42:50;;;;;;;48.65;28.02;;;3.70;99.90;;;;;;4906953;29;20051;-76
2022/03/25 04:45:18;;;;;;;49.17;27.73;;;3.60;99.90;;;;;;4905299;29;20060;-75
2022/03/25 04:47:44;;;;;;;50.92;29.73;;;3.60;99.90;;;;;;4903442;29;20498;-75
2022/03/25 04:50:11;;;;;;;47.63;27.73;;;3.60;99.90;;;;;;4890457;29;20823;-75
2022/03/25 04:52:38;;;;;;;52.28;28.65;;;3.70;99.90;;;;;;4885744;29;20171;-78
2022/03/25 04:55:04;;;;;;;47.00;28.73;;;3.50;99.90;;;;;;4920585;29;20099;-78
2022/03/25 04:57:30;;;;;;;54.22;29.98;;;3.50;99.90;;;;;;4904178;29;20052;-78
2022/03/25 04:59:56;;;;;;;53.10;28.77;;;3.50;99.90;;;;;;4890279;29;20446;-76
2022/03/25 05:02:22;;;;;;;52.42;29.35;;;4.50;99.90;;;;;;4921702;29;20083;-75
2022/03/25 05:04:48;;;;;;;51.38;28.27;;;3.70;99.90;;;;;;4908050;29;20494;-75
2022/03/25 05:07:15;;;;;;;46.78;28.33;;;3.40;99.90;;;;;;4905832;29;20066;-75
2022/03/25 05:09:41;;;;;;;51.83;28.48;;;3.40;99.90;;;;;;4889503;29;20052;-76
2022/03/25 05:12:08;;;;;;;53.25;28.58;;;3.40;99.90;;;;;;4904894;29;20120;-75
2022/03/25 05:14:34;;;;;;;52.78;29.15;;;3.40;99.90;;;;;;4905182;29;20052;-75
2022/03/25 05:17:00;;;;;;;49.50;29.13;;;3.80;99.90;;;;;;4889817;29;20044;-75
2022/03/25 05:19:26;;;;;;;52.90;29.83;;;3.30;99.90;;;;;;4907395;29;20506;-76
2022/03/25 05:21:52;;;;;;;52.03;28.15;;;3.30;99.90;;;;;;4889716;29;20060;-75
2022/03/25 05:24:17;;;;;;;46.60;27.13;;;3.30;99.90;;;;;;4889880;29;20578;-75
2022/03/25 05:26:44;;;;;;;50.20;28.17;;;3.30;99.90;;;;;;4904278;29;20044;-75
2022/03/25 05:29:10;;;;;;;52.50;28.60;;;3.30;99.90;;;;;;4905024;29;20051;-75
2022/03/25 05:31:37;;;;;;;48.80;28.27;;;3.30;99.90;;;;;;4887205;29;20048;-75
2022/03/25 05:34:06;;;;;;;46.20;27.20;;;3.30;99.90;;;;;;4904657;29;20050;-75
2022/03/25 05:36:35;;;;;;;50.88;27.85;;;3.20;99.90;;;;;;4904616;29;20059;-76
2022/03/25 05:39:02;;;;;;;43.08;26.98;;;4.00;99.90;;;;;;4903775;29;20084;-75
2022/03/25 05:41:29;;;;;;;56.22;29.70;;;3.80;99.90;;;;;;4894256;29;20056;-74
2022/03/25 05:43:55;;;;;;;49.03;27.92;;;3.20;99.90;;;;;;4894659;29;20234;-75
2022/03/25 05:46:21;;;;;;;52.70;28.63;;;3.20;99.90;;;;;;4873320;29;20059;-75
2022/03/25 05:48:47;;;;;;;49.30;27.83;;;3.20;99.90;;;;;;4886653;29;20397;-75
2022/03/25 05:51:13;;;;;;;48.70;27.20;;;3.20;99.90;;;;;;4919476;29;20123;-75
2022/03/25 05:53:40;;;;;;;53.67;29.98;;;3.40;99.90;;;;;;4903853;29;20040;-75
2022/03/25 05:56:07;;;;;;;52.42;27.50;;;3.50;99.90;;;;;;4904658;29;20060;-76
2022/03/25 05:58:34;;;;;;;52.28;28.63;;;3.40;99.90;;;;;;4887272;29;20058;-77
2022/03/25 06:01:00;;;;;;;50.50;28.73;;;4.40;99.90;;;;;;4904358;29;20071;-76
2022/03/25 06:03:26;;;;;;;49.40;26.92;;;4.00;99.90;;;;;;4904661;29;20048;-76
2022/03/25 06:05:52;;;;;;;52.03;28.13;;;3.50;99.90;;;;;;4904636;29;20048;-76
2022/03/25 06:08:18;;;;;;;46.50;27.30;;;3.50;99.90;;;;;;4900951;29;20048;-77
2022/03/25 06:10:44;;;;;;;50.55;28.17;;;4.50;99.90;;;;;;4885850;29;20048;-77
2022/03/25 06:13:09;;;;;;;48.65;28.63;;;4.70;99.90;;;;;;4886946;29;20048;-76
2022/03/25 06:15:35;;;;;;;51.95;28.38;;;3.60;99.90;;;;;;4903026;29;20430;-77
2022/03/25 06:18:01;;;;;;;52.30;28.42;;;3.60;99.90;;;;;;4901072;29;20044;-76
2022/03/25 06:20:30;;;;;;;46.63;27.38;;;4.50;99.90;;;;;;4887178;29;20413;-76
2022/03/25 06:22:56;;;;;;;45.72;27.90;;;3.70;99.90;;;;;;4902267;29;20060;-76
2022/03/25 06:25:22;;;;;;;50.58;27.45;;;3.80;99.90;;;;;;4900683;29;20052;-76
2022/03/25 06:27:57;;;;;;;46.95;27.85;;;3.80;99.90;;;;;;4901481;29;20156;-76
2022/03/25 06:30:25;;;;;;;49.88;28.70;;;4.00;99.90;;;;;;4886203;29;20053;-77
2022/03/25 06:32:51;;;;;;;53.75;28.50;;;4.30;99.90;;;;;;4901714;29;20055;-76
2022/03/25 06:35:17;;;;;;;53.63;29.90;;;5.20;99.90;;;;;;4892413;29;20427;-76
2022/03/25 06:37:44;;;;;;;58.55;31.02;;;4.10;99.90;;;;;;4886722;29;20052;-76
2022/03/25 06:40:10;;;;;;;52.95;29.35;;;5.10;99.90;;;;;;4900694;29;20056;-76
2022/03/25 06:42:38;;;;;;;54.05;29.60;;;4.30;99.90;;;;;;4902405;29;20517;-77
2022/03/25 06:45:05;;;;;;;57.65;31.17;;;4.30;99.90;;;;;;4887536;29;20101;-76
2022/03/25 06:47:31;;;;;;;53.90;30.17;;;4.40;99.90;;;;;;4893360;29;20075;-78
2022/03/25 06:49:58;;;;;;;54.10;30.98;;;4.60;99.90;;;;;;4893095;29;20459;-78
2022/03/25 06:52:24;;;;;;;56.67;30.63;;;4.60;99.90;;;;;;4922948;29;20040;-76
2022/03/25 06:54:50;;;;;;;56.72;31.25;;;4.70;99.90;;;;;;4902371;29;20138;-77
2022/03/25 06:57:17;;;;;;;56.85;30.80;;;4.90;99.90;;;;;;4859741;29;20216;-77
2022/03/25 06:59:42;;;;;;;54.45;30.65;;;5.00;99.90;;;;;;4907712;29;20044;-76
2022/03/25 07:02:09;;;;;;;50.03;29.70;;;5.10;99.90;;;;;;4887004;29;20108;-76
2022/03/25 07:04:36;;;;;;;54.38;30.65;;;5.20;99.90;;;;;;4901941;29;20123;-81
2022/03/25 07:07:04;;;;;;;51.53;31.20;;;5.30;99.90;;;;;;4888090;29;20087;-76
2022/03/25 07:09:30;;;;;;;49.67;28.33;;;5.40;99.90;;;;;;4902198;29;20052;-76
2022/03/25 07:11:57;;;;;;;56.70;31.60;;;5.50;99.90;;;;;;4902321;29;20156;-76
2022/03/25 07:14:23;;;;;;;54.95;31.95;;;5.70;99.90;;;;;;4902553;29;20048;-77
2022/03/25 07:16:49;;;;;;;56.00;32.00;;;5.80;99.90;;;;;;4885470;29;20048;-78
2022/03/25 07:19:14;;;;;;;50.08;28.98;;;5.90;99.90;;;;;;4902142;29;20052;-78
2022/03/25 07:21:40;;;;;;;63.05;33.78;;;6.00;99.90;;;;;;4900357;29;20107;-78
2022/03/25 07:24:06;;;;;;;61.42;34.75;;;6.20;99.90;;;;;;4885356;29;20864;-80
2022/03/25 07:26:32;;;;;;;57.83;34.28;;;6.30;99.90;;;;;;4893536;29;20048;-80
2022/03/25 07:28:58;;;;;;;59.08;35.25;;;6.70;99.90;;;;;;4916819;29;20044;-80
2022/03/25 07:31:28;;;;;;;66.45;36.08;;;6.70;99.90;;;;;;4887014;29;20463;-80
2022/03/25 07:33:56;;;;;;;63.72;35.83;;;6.70;99.90;;;;;;4904938;29;20044;-81
2022/03/25 07:36:24;;;;;;;60.78;37.25;;;6.90;99.90;;;;;;4900375;29;20056;-81
2022/03/25 07:38:51;;;;;;;58.75;35.30;;;7.00;99.90;;;;;;4885314;29;20111;-80
2022/03/25 07:41:18;;;;;;;58.83;35.97;;;7.20;99.90;;;;;;4895546;29;20060;-79
2022/03/25 07:43:45;;;;;;;58.38;34.83;;;7.40;99.90;;;;;;4906153;29;20048;-80
2022/03/25 07:46:10;;;;;;;56.80;34.78;;;7.60;99.90;;;;;;4910330;29;20059;-79
2022/03/25 07:48:36;;;;;;;53.10;32.17;;;7.80;99.90;;;;;;4892944;29;20390;-79
2022/03/25 07:51:03;;;;;;;49.67;30.15;;;7.90;99.90;;;;;;4922168;29;20056;-73
2022/03/25 07:53:29;;;;;;;46.17;29.92;;;8.10;99.90;;;;;;4908962;29;20124;-75
2022/03/25 07:55:55;;;;;;;46.00;29.67;;;8.30;99.90;;;;;;4907326;29;20048;-78
2022/03/25 07:58:23;;;;;;;44.47;26.92;;;8.50;99.90;;;;;;4907832;29;20049;-78
2022/03/25 08:00:50;;;;;;;38.70;26.90;;;8.70;99.90;;;;;;4892039;29;20059;-77
2022/03/25 08:03:16;;;;;;;45.00;26.95;;;8.90;99.90;;;;;;4908864;29;20086;-76
2022/03/25 08:05:42;;;;;;;36.97;25.33;;;9.10;99.90;;;;;;4883691;29;20048;-76
2022/03/25 08:08:09;;;;;;;38.08;24.88;;;9.30;99.90;;;;;;4909178;29;20067;-76
2022/03/25 08:10:36;;;;;;;36.85;24.98;;;9.60;99.90;;;;;;4906782;29;20056;-76
2022/03/25 08:13:02;;;;;;;36.38;23.88;;;9.80;99.90;;;;;;4891880;29;20048;-76
2022/03/25 08:15:29;;;;;;;37.40;23.92;;;10.00;99.90;;;;;;4891430;29;20052;-76
2022/03/25 08:18:01;;;;;;;34.03;23.30;;;10.20;99.90;;;;;;4907145;29;20595;-76
2022/03/25 08:20:41;;;;;;;31.67;22.27;;;10.40;99.90;;;;;;4923495;29;20071;-76
2022/03/25 08:23:12;;;;;;;31.98;22.45;;;10.60;99.90;;;;;;4908010;29;20075;-76
2022/03/25 08:28:26;;;;;;;31.70;21.20;;;11.10;99.90;;;;;;4895417;29;20467;-76
2022/03/25 08:30:52;;;;;;;31.30;21.10;;;11.30;99.90;;;;;;4908026;29;20091;-77
2022/03/25 08:33:19;;;;;;;32.63;21.90;;;11.50;99.90;;;;;;4909033;29;20079;-77
2022/03/25 08:35:45;;;;;;;28.98;20.70;;;11.80;99.90;;;;;;4906999;29;20514;-76
2022/03/25 08:38:12;;;;;;;29.20;20.40;;;12.00;99.90;;;;;;4892291;29;20056;-77
2022/03/25 08:40:39;;;;;;;29.25;21.27;;;12.30;99.90;;;;;;4899615;29;20051;-77
2022/03/25 08:43:05;;;;;;;27.65;18.98;;;12.50;99.90;;;;;;4908935;29;20047;-81
2022/03/25 08:45:32;;;;;;;28.50;17.90;;;12.80;99.90;;;;;;4907327;29;20082;-77
2022/03/25 08:47:58;;;;;;;26.65;18.20;;;13.10;99.90;;;;;;4897632;29;20068;-77
2022/03/25 08:50:25;;;;;;;27.85;18.90;;;13.30;99.90;;;;;;4905428;29;20058;-77
2022/03/25 08:52:52;;;;;;;26.05;19.23;;;13.60;99.90;;;;;;4873915;29;20433;-76
2022/03/25 08:55:20;;;;;;;28.02;18.98;;;13.90;99.90;;;;;;4904715;29;20116;-76
2022/03/25 08:57:47;;;;;;;26.92;17.67;;;14.20;99.90;;;;;;4904915;29;20127;-77
2022/03/25 09:00:15;;;;;;;25.30;17.48;;;14.50;99.90;;;;;;4888831;29;20107;-77
2022/03/25 09:02:43;;;;;;;25.55;17.33;;;14.70;99.90;;;;;;4903836;29;20052;-78
2022/03/25 09:05:11;;;;;;;28.35;17.15;;;15.00;99.90;;;;;;4887767;29;20490;-77
2022/03/25 09:07:37;;;;;;;28.60;15.18;;;15.30;99.90;;;;;;4904506;29;20135;-76
2022/03/25 09:10:16;;;;;;;22.55;14.85;;;15.50;99.90;;;;;;4886585;29;20493;-76
2022/03/25 09:12:44;;;;;;;54.47;18.02;;;15.60;99.90;;;;;;4904250;29;20082;-76
2022/03/25 09:15:12;;;;;;;22.75;15.25;;;15.90;99.90;;;;;;4888368;29;20052;-76
2022/03/25 09:17:44;;;;;;;25.70;16.00;;;16.00;99.90;;;;;;4895459;29;20052;-75
2022/03/25 09:20:10;;;;;;;22.20;15.60;;;16.10;99.90;;;;;;4903591;29;20487;-75
2022/03/25 09:22:36;;;;;;;19.90;15.15;;;16.30;99.50;;;;;;4895359;29;20056;-75
2022/03/25 09:25:04;;;;;;;21.13;15.32;;;16.50;99.20;;;;;;4886679;29;20099;-76
2022/03/25 09:27:30;;;;;;;20.95;13.63;;;16.80;98.20;;;;;;4889900;29;20119;-75
2022/03/25 09:29:56;;;;;;;19.23;13.50;;;17.00;97.20;;;;;;4887712;29;20047;-75
2022/03/25 09:32:21;;;;;;;19.45;13.05;;;17.20;96.10;;;;;;4888891;29;20107;-75
2022/03/25 09:37:38;;;;;;;18.67;13.32;;;17.60;93.00;;;;;;4923582;29;20130;-75
2022/03/25 09:40:09;;;;;;;20.73;15.48;;;18.00;91.20;;;;;;4903058;29;20103;-76
2022/03/25 09:42:36;;;;;;;21.05;15.73;;;18.10;90.60;;;;;;4920701;29;20064;-75
2022/03/25 09:45:04;;;;;;;23.60;15.23;;;18.20;91.10;;;;;;4903422;29;20465;-75
2022/03/25 09:47:31;;;;;;;21.65;15.50;;;18.30;90.10;;;;;;4887874;29;20418;-75
2022/03/25 09:49:59;;;;;;;19.65;14.93;;;18.50;88.40;;;;;;4893149;29;20067;-74
2022/03/25 09:52:30;;;;;;;21.42;15.23;;;18.50;83.90;;;;;;4888722;29;20126;-75
2022/03/25 09:54:56;;;;;;;19.13;14.48;;;18.80;82.50;;;;;;4909403;29;20054;-75
2022/03/25 09:57:21;;;;;;;21.20;14.88;;;18.60;81.80;;;;;;4903437;29;20132;-75
2022/03/25 09:59:47;;;;;;;20.77;14.02;;;18.70;79.90;;;;;;4902793;29;20048;-76
2022/03/25 10:02:13;;;;;;;18.20;13.43;;;18.70;77.40;;;;;;4926615;29;20048;-76
2022/03/25 10:04:47;;;;;;;17.30;13.27;;;18.70;74.90;;;;;;4887053;29;20059;-75
2022/03/25 10:07:21;;;;;;;18.35;13.18;;;18.80;71.90;;;;;;4906021;29;20051;-75
2022/03/25 10:10:25;;;;;;;21.10;13.43;;;18.90;71.40;;;;;;4902591;29;20056;-77
2022/03/25 10:13:02;;;;;;;17.65;12.63;;;18.90;65.60;;;;;;4888906;29;20146;-76
2022/03/25 10:15:38;;;;;;;18.92;12.73;;;19.00;67.90;;;;;;4905096;29;20044;-76
2022/03/25 10:18:05;;;;;;;;;;;19.20;68.30;;;;;;4903630;29;20059;-76
2022/03/25 10:20:32;;;;;;;15.90;12.18;;;19.30;64.10;;;;;;4890846;29;19946;-77
2022/03/25 10:23:00;;;;;;;16.52;11.80;;;19.40;68.10;;;;;;4890516;29;20094;-76
2022/03/25 10:25:56;;;;;;;16.25;12.05;;;19.50;66.60;;;;;;4894193;29;20135;-76
2022/03/25 10:28:36;;;;;;;19.27;14.00;;;19.60;61.20;;;;;;4888762;29;20102;-76
2022/03/25 10:31:06;;;;;;;19.13;13.50;;;19.70;62.40;;;;;;4925846;29;20055;-76
2022/03/25 10:33:36;;;;;;;16.70;12.40;;;19.70;62.30;;;;;;4904776;29;20044;-76
2022/03/25 10:36:09;;;;;;;16.95;12.60;;;19.70;62.20;;;;;;4907025;29;20040;-76
2022/03/25 10:38:46;;;;;;;18.65;12.80;;;19.80;61.30;;;;;;4872299;29;20059;-76
2022/03/25 10:41:22;;;;;;;15.82;12.80;;;19.90;59.60;;;;;;4887710;29;20048;-76
2022/03/25 10:44:05;;;;;;;18.33;12.90;;;19.90;61.00;;;;;;4904073;29;20088;-76
2022/03/25 10:46:45;;;;;;;21.75;14.02;;;19.90;58.20;;;;;;4904096;29;20057;-75
2022/03/25 10:49:17;;;;;;;17.33;12.75;;;20.00;58.60;;;;;;4904055;29;20589;-77
2022/03/25 10:52:01;;;;;;;16.90;13.55;;;20.20;59.90;;;;;;4888756;29;20056;-76
2022/03/25 10:54:28;;;;;;;15.32;12.57;;;20.30;57.40;;;;;;4920227;29;20058;-76
2022/03/25 10:56:56;;;;;;;16.85;13.38;;;20.50;59.40;;;;;;4887859;29;20499;-77
2022/03/25 10:59:35;;;;;;;18.02;13.65;;;20.70;59.00;;;;;;4906665;29;20523;-75
2022/03/25 11:02:03;;;;;;;18.92;15.00;;;20.80;59.10;;;;;;4901214;29;20048;-75
2022/03/25 11:04:29;;;;;;;16.30;14.20;;;21.10;58.80;;;;;;4902899;29;20056;-75
2022/03/25 11:06:56;;;;;;;17.15;14.38;;;21.20;58.10;;;;;;4900909;29;20051;-76
2022/03/25 11:09:24;;;;;;;19.63;14.60;;;21.50;57.90;;;;;;4902567;29;20052;-75
2022/03/25 11:11:51;;;;;;;19.33;14.50;;;21.60;57.50;;;;;;4902176;29;20580;-76
2022/03/25 11:14:17;;;;;;;20.92;14.73;;;21.80;57.60;;;;;;4903381;29;20062;-75
2022/03/25 11:16:53;;;;;;;18.20;14.52;;;21.80;56.90;;;;;;4892221;29;20522;-75
2022/03/25 11:19:21;;;;;;;20.30;14.52;;;22.00;55.40;;;;;;4918270;29;20082;-75
2022/03/25 11:21:49;;;;;;;17.73;14.65;;;22.10;55.20;;;;;;4893742;29;20147;-75
2022/03/25 11:24:36;;;;;;;18.60;13.18;;;22.20;55.20;;;;;;4917332;29;20131;-75
2022/03/25 11:27:26;;;;;;;18.13;13.15;;;22.40;52.90;;;;;;4902534;29;20060;-75
2022/03/25 11:29:56;;;;;;;16.85;13.77;;;22.60;51.70;;;;;;4901233;29;20063;-76
2022/03/25 11:32:23;;;;;;;20.85;14.95;;;22.80;53.70;;;;;;4902789;29;20047;-76
2022/03/25 11:34:55;;;;;;;18.60;14.60;;;22.90;53.10;;;;;;4901854;29;20053;-75
2022/03/25 11:37:25;;;;;;;18.65;14.32;;;23.00;51.90;;;;;;4902540;29;20052;-75
2022/03/25 11:40:12;;;;;;;21.10;14.63;;;23.20;52.30;;;;;;4902984;29;21039;-75
2022/03/25 11:42:41;;;;;;;18.83;15.05;;;23.10;50.20;;;;;;4901366;29;20110;-76
2022/03/25 11:45:37;;;;;;;21.25;16.75;;;23.20;51.20;;;;;;4916902;29;20503;-76
2022/03/25 11:48:06;;;;;;;22.40;16.60;;;23.30;48.60;;;;;;4882724;29;20132;-77
2022/03/25 11:50:42;;;;;;;24.08;18.08;;;23.30;51.00;;;;;;4885656;29;20879;-77
2022/03/25 11:53:10;;;;;;;21.48;17.77;;;23.40;49.70;;;;;;4908617;29;20044;-73
2022/03/25 11:56:05;;;;;;;21.67;17.52;;;23.60;49.80;;;;;;4886938;29;20399;-74
2022/03/25 11:58:55;;;;;;;22.70;17.25;;;23.80;48.30;;;;;;4902492;29;20134;-77
2022/03/25 12:01:22;;;;;;;21.38;16.00;;;23.90;48.30;;;;;;4901428;29;20048;-77
2022/03/25 12:03:53;;;;;;;18.55;15.40;;;24.00;48.80;;;;;;4903198;29;20102;-77
2022/03/25 12:06:21;;;;;;;20.15;14.95;;;24.10;47.70;;;;;;4902179;29;20166;-82
2022/03/25 12:09:00;;;;;;;19.15;16.05;;;24.10;47.50;;;;;;4891568;29;20053;-77
2022/03/25 12:11:49;;;;;;;19.55;16.90;;;24.00;44.90;;;;;;4900708;29;20093;-76
2022/03/25 12:14:15;;;;;;;19.27;15.18;;;24.10;43.70;;;;;;4901260;29;20598;-76
2022/03/25 12:16:47;;;;;;;18.42;15.45;;;24.20;46.40;;;;;;4901250;29;20495;-77
2022/03/25 12:19:28;;;;;;;17.58;14.50;;;24.30;45.10;;;;;;4899776;29;20059;-76
2022/03/25 12:21:55;;;;;;;17.20;13.18;;;24.30;43.80;;;;;;4902002;29;20052;-78
2022/03/25 12:24:21;;;;;;;16.98;12.32;;;24.40;44.80;;;;;;4908608;29;20071;-77
2022/03/25 12:26:55;;;;;;;18.50;12.98;;;24.50;44.00;;;;;;4907743;29;20536;-77
2022/03/25 12:29:29;;;;;;;17.23;13.43;;;24.70;42.60;;;;;;4905322;29;20052;-77
2022/03/25 12:31:55;;;;;;;15.73;13.75;;;24.90;43.10;;;;;;4890339;29;20099;-74
2022/03/25 12:34:41;;;;;;;16.58;14.30;;;24.90;43.20;;;;;;4888374;29;20529;-75
2022/03/25 12:37:12;;;;;;;;;;;25.10;42.10;;;;;;4904514;29;20130;-75
2022/03/25 12:39:38;;;;;;;19.75;15.30;;;25.20;41.30;;;;;;4919251;29;19923;-76
2022/03/25 12:42:13;;;;;;;18.55;14.90;;;25.00;44.20;;;;;;4906552;29;20302;-76
2022/03/25 12:44:39;;;;;;;21.05;14.77;;;25.00;42.40;;;;;;4890051;29;20167;-76